^^
Station Historical Data
Daily Summary for May 16, 2019 Units:  Metric    English   Both
« Previous Day
Next Day »
Daily Weekly Monthly Yearly Custom
  High: Low: Average:
Temperature: 16.2 °C 7.1 °C 12 °C
Dew Point: 9.8 °C -1.3 °C 4.5 °C
Humidity: 91% 32% 63%
Wind Speed: 38.6km/h 3.2km/h 19.2km/h
Wind Gust: 45.1km/h - -
Wind- - SE
Pressure: 1011.1 hPa 1000.6 hPa -
Precipitation: 0 mm    
Historical Graphs
 
 
Tabular Data for May 16, 2019
Time Temperature Dew Point Pressure Wind Wind Speed Wind Gust Humidity Rainfall Rate (Hourly) solar Conditions
00:04 16.2 °C 9.8 °C 1000.6 hPa WSW 3.2 km/h 6.4 km/h 66% 0 mm 0.00 W/m2
00:09 16.1 °C 9.8 °C 1000.6 hPa WSW 4.8 km/h 6.4 km/h 66% 0 mm 0.00 W/m2
00:14 16.1 °C 9.8 °C 1000.6 hPa West 6.4 km/h 6.4 km/h 66% 0 mm 0.00 W/m2
00:19 15.9 °C 9.6 °C 1001.2 hPa NW 16.1 km/h 17.7 km/h 66% 0 mm 0.00 W/m2
00:24 15.5 °C 9.2 °C 1001.2 hPa NW 24.1 km/h 25.7 km/h 66% 0 mm 0.00 W/m2
00:29 15.3 °C 9 °C 1001.2 hPa NW 14.5 km/h 25.7 km/h 66% 0 mm 0.00 W/m2
00:34 15.3 °C 8.9 °C 1001.2 hPa NNW 14.5 km/h 25.7 km/h 66% 0 mm 0.00 W/m2
00:39 15.3 °C 9 °C 1001.6 hPa NW 22.5 km/h 25.7 km/h 66% 0 mm 0.00 W/m2
00:44 15.4 °C 8.7 °C 1001.2 hPa NNW 20.9 km/h 25.7 km/h 64% 0 mm 0.00 W/m2
00:49 15.7 °C 8.2 °C 1001.6 hPa NW 20.9 km/h 25.7 km/h 61% 0 mm 0.00 W/m2
00:54 15.8 °C 8.3 °C 1001.6 hPa NW 20.9 km/h 25.7 km/h 61% 0 mm 0.00 W/m2
00:59 15.7 °C 8.2 °C 1001.6 hPa NNW 16.1 km/h 25.7 km/h 61% 0 mm 0.00 W/m2
01:04 15.4 °C 8.2 °C 1001.9 hPa NW 4.8 km/h 25.7 km/h 62% 0 mm 0.00 W/m2
01:09 15.1 °C 8.1 °C 1001.9 hPa NW 11.3 km/h 19.3 km/h 63% 0 mm 0.00 W/m2
01:14 14.8 °C 7.8 °C 1001.9 hPa WNW 6.4 km/h 19.3 km/h 63% 0 mm 0.00 W/m2
01:19 14.6 °C 7.8 °C 1002.3 hPa WNW 6.4 km/h 14.5 km/h 64% 0 mm 0.00 W/m2
01:24 14.2 °C 7.9 °C 1002.3 hPa West 6.4 km/h 14.5 km/h 66% 0 mm 0.00 W/m2
01:29 13.9 °C 7.6 °C 1002.3 hPa West 6.4 km/h 14.5 km/h 66% 0 mm 0.00 W/m2
01:34 13.7 °C 7.7 °C 1002.3 hPa WNW 11.3 km/h 16.1 km/h 67% 0 mm 0.00 W/m2
01:39 13.9 °C 7.9 °C 1002.3 hPa NW 16.1 km/h 17.7 km/h 67% 0 mm 0.00 W/m2
01:44 13.8 °C 8 °C 1002.3 hPa NNW 9.7 km/h 19.3 km/h 68% 0 mm 0.00 W/m2
01:49 13.8 °C 8.2 °C 1002.3 hPa NW 19.3 km/h 24.1 km/h 69% 0 mm 0.00 W/m2
01:54 13.9 °C 8.6 °C 1002.3 hPa NNW 19.3 km/h 25.7 km/h 70% 0 mm 0.00 W/m2
01:59 14 °C 8.6 °C 1002.3 hPa NNW 19.3 km/h 25.7 km/h 70% 0 mm 0.00 W/m2
02:04 14.1 °C 8.7 °C 1002.3 hPa North 20.9 km/h 32.2 km/h 70% 0 mm 0.00 W/m2
02:09 14.1 °C 8.7 °C 1002.3 hPa NNW 24.1 km/h 35.4 km/h 70% 0 mm 0.00 W/m2
02:14 14.3 °C 8.7 °C 1002.3 hPa NNW 22.5 km/h 35.4 km/h 69% 0 mm 0.00 W/m2
02:19 14.2 °C 8.4 °C 1002.3 hPa NW 22.5 km/h 35.4 km/h 68% 0 mm 0.00 W/m2
02:24 14.2 °C 8.3 °C 1002.6 hPa NNW 24.1 km/h 35.4 km/h 68% 0 mm 0.00 W/m2
02:29 14 °C 8.4 °C 1002.6 hPa NW 9.7 km/h 30.6 km/h 69% 0 mm 0.00 W/m2
02:34 13.8 °C 8.8 °C 1002.6 hPa NW 20.9 km/h 30.6 km/h 72% 0 mm 0.00 W/m2
02:39 13.8 °C 8.4 °C 1002.6 hPa NW 19.3 km/h 30.6 km/h 70% 0 mm 0.00 W/m2
02:44 13.7 °C 8.5 °C 1002.6 hPa NW 14.5 km/h 30.6 km/h 71% 0 mm 0.00 W/m2
02:49 13.4 °C 8.3 °C 1002.9 hPa NW 16.1 km/h 30.6 km/h 71% 0 mm 0.00 W/m2
02:54 13.2 °C 8.1 °C 1002.9 hPa NW 12.9 km/h 30.6 km/h 71% 0 mm 0.00 W/m2
02:59 13.1 °C 8.1 °C 1002.9 hPa NW 17.7 km/h 30.6 km/h 72% 0 mm 0.00 W/m2
03:04 12.9 °C 8 °C 1003.3 hPa NNW 16.1 km/h 29 km/h 72% 0 mm 0.00 W/m2
03:09 12.7 °C 7.9 °C 1003.3 hPa NNW 17.7 km/h 29 km/h 73% 0 mm 0.00 W/m2
03:14 12.6 °C 8.1 °C 1003.3 hPa NNW 17.7 km/h 29 km/h 74% 0 mm 0.00 W/m2
03:19 12.4 °C 8.1 °C 1003.3 hPa NW 25.7 km/h 27.4 km/h 75% 0 mm 0.00 W/m2
03:24 12.3 °C 7.9 °C 1003.3 hPa NW 17.7 km/h 30.6 km/h 75% 0 mm 0.00 W/m2
03:29 12.1 °C 8.2 °C 1003.6 hPa NW 24.1 km/h 30.6 km/h 77% 0 mm 0.00 W/m2
03:34 12 °C 8.3 °C 1003.6 hPa NW 19.3 km/h 32.2 km/h 78% 0 mm 0.00 W/m2
03:39 11.9 °C 8.6 °C 1003.6 hPa NW 22.5 km/h 32.2 km/h 80% 0 mm 0.00 W/m2
03:44 11.9 °C 8.9 °C 1003.6 hPa NW 25.7 km/h 33.8 km/h 82% 0 mm 0.00 W/m2
03:49 11.9 °C 9.2 °C 1003.9 hPa NW 12.9 km/h 33.8 km/h 83% 0 mm 0.00 W/m2
03:54 11.9 °C 9.2 °C 1003.9 hPa NNW 20.9 km/h 33.8 km/h 83% 0 mm 0.00 W/m2
03:59 12.1 °C 9.4 °C 1003.9 hPa NNW 16.1 km/h 33.8 km/h 84% 0 mm 0.00 W/m2
04:04 12.1 °C 9.5 °C 1003.9 hPa NNW 19.3 km/h 32.2 km/h 84% 0 mm 0.00 W/m2
04:09 12.1 °C 9.5 °C 1003.9 hPa NW 32.2 km/h 32.2 km/h 84% 0 mm 0.00 W/m2
04:14 12.1 °C 9.5 °C 1004.3 hPa NNW 32.2 km/h 35.4 km/h 84% 0 mm 0.00 W/m2
04:19 11.9 °C 9.3 °C 1004.3 hPa NNW 20.9 km/h 43.5 km/h 84% 0 mm 0.00 W/m2
04:24 11.8 °C 9.2 °C 1004.3 hPa NNW 25.7 km/h 43.5 km/h 84% 0 mm 0.00 W/m2
04:29 11.6 °C 9 °C 1004.3 hPa NW 20.9 km/h 43.5 km/h 84% 0 mm 0.00 W/m2
04:34 11.5 °C 9.1 °C 1004.3 hPa NW 29 km/h 43.5 km/h 85% 0 mm 0.00 W/m2
04:39 11.3 °C 8.9 °C 1004.6 hPa NNW 24.1 km/h 37 km/h 85% 0 mm 0.00 W/m2
04:44 11.1 °C 8.5 °C 1004.6 hPa NNW 22.5 km/h 37 km/h 84% 0 mm 0.00 W/m2
04:49 10.8 °C 8.2 °C 1004.6 hPa NW 38.6 km/h 38.6 km/h 84% 0 mm 0.00 W/m2
04:54 10.6 °C 8.1 °C 1005 hPa NNW 24.1 km/h 38.6 km/h 85% 0 mm 0.00 W/m2
04:59 10.3 °C 7.9 °C 1005 hPa NNW 24.1 km/h 38.6 km/h 85% 0 mm 0.00 W/m2
05:04 10.2 °C 7.8 °C 1005 hPa NW 24.1 km/h 38.6 km/h 85% 0 mm 0.00 W/m2
05:09 10.1 °C 7.8 °C 1005 hPa NW 29 km/h 41.8 km/h 86% 0 mm 0.00 W/m2
05:14 10 °C 7.8 °C 1005.3 hPa NNW 22.5 km/h 41.8 km/h 86% 0 mm 0.00 W/m2
05:19 9.9 °C 7.7 °C 1005.3 hPa NNW 17.7 km/h 41.8 km/h 86% 0 mm 0.00 W/m2
05:24 9.8 °C 7.6 °C 1005.3 hPa NNW 35.4 km/h 41.8 km/h 86% 0 mm 0.00 W/m2
05:29 9.7 °C 7.4 °C 1005.3 hPa NNW 29 km/h 41.8 km/h 86% 0 mm 0.00 W/m2
05:34 9.6 °C 7.5 °C 1005.3 hPa NNW 33.8 km/h 41.8 km/h 87% 0 mm 0.00 W/m2
05:39 9.4 °C 7.3 °C 1005.3 hPa NNW 20.9 km/h 40.2 km/h 87% 0 mm 0.00 W/m2
05:44 9.3 °C 7.2 °C 1005.3 hPa NNW 33.8 km/h 41.8 km/h 87% 0 mm 0.00 W/m2
05:49 9.2 °C 7.3 °C 1005.3 hPa NNW 35.4 km/h 41.8 km/h 88% 0 mm 0.00 W/m2
05:54 9.2 °C 7.3 °C 1005.3 hPa NNW 29 km/h 41.8 km/h 88% 0 mm 0.00 W/m2
05:59 9 °C 7.1 °C 1005.3 hPa NNW 33.8 km/h 45.1 km/h 88% 0 mm 0.00 W/m2
06:04 8.8 °C 6.9 °C 1005.6 hPa North 19.3 km/h 45.1 km/h 88% 0 mm 0.00 W/m2
06:09 8.7 °C 6.8 °C 1005.6 hPa NNW 38.6 km/h 45.1 km/h 88% 0 mm 0.00 W/m2
06:14 8.6 °C 6.7 °C 1006 hPa NNW 25.7 km/h 45.1 km/h 88% 0 mm 5.00 W/m2
06:19 8.5 °C 6.8 °C 1006 hPa NNW 27.4 km/h 40.2 km/h 89% 0 mm 5.00 W/m2
06:24 8.4 °C 6.7 °C 1006.3 hPa NNW 24.1 km/h 40.2 km/h 89% 0 mm 7.00 W/m2
06:29 8.3 °C 6.6 °C 1006 hPa NNW 19.3 km/h 33.8 km/h 89% 0 mm 9.00 W/m2
06:34 8.3 °C 6.6 °C 1006.3 hPa North 25.7 km/h 32.2 km/h 89% 0 mm 14.00 W/m2
06:39 8.3 °C 6.6 °C 1006.3 hPa NNW 24.1 km/h 32.2 km/h 89% 0 mm 14.00 W/m2
06:44 8.2 °C 6.5 °C 1006.7 hPa NNW 19.3 km/h 37 km/h 89% 0 mm 18.00 W/m2
06:49 8.2 °C 6.6 °C 1007 hPa NNW 17.7 km/h 37 km/h 90% 0 mm 25.00 W/m2
06:54 8.1 °C 6.6 °C 1007 hPa NNW 25.7 km/h 32.2 km/h 90% 0 mm 26.00 W/m2
06:59 8.1 °C 6.5 °C 1007 hPa NNW 20.9 km/h 38.6 km/h 90% 0 mm 25.00 W/m2
07:04 8.1 °C 6.5 °C 1007.3 hPa NNW 20.9 km/h 38.6 km/h 90% 0 mm 21.00 W/m2
07:09 8.1 °C 6.5 °C 1007.3 hPa NNW 25.7 km/h 38.6 km/h 90% 0 mm 19.00 W/m2
07:14 8 °C 6.4 °C 1007.3 hPa NNW 22.5 km/h 38.6 km/h 90% 0 mm 18.00 W/m2
07:19 8 °C 6.4 °C 1007.7 hPa North 19.3 km/h 33.8 km/h 90% 0 mm 19.00 W/m2
07:24 8.1 °C 6.5 °C 1007.7 hPa NNW 29 km/h 33.8 km/h 90% 0 mm 23.00 W/m2
07:29 8 °C 6.3 °C 1007.3 hPa North 24.1 km/h 37 km/h 89% 0 mm 23.00 W/m2
07:34 7.9 °C 6.2 °C 1007.7 hPa North 25.7 km/h 37 km/h 89% 0 mm 26.00 W/m2
07:39 7.8 °C 6.3 °C 1007.7 hPa NNW 22.5 km/h 35.4 km/h 90% 0 mm 30.00 W/m2
07:44 7.8 °C 6.2 °C 1007.7 hPa NNW 25.7 km/h 35.4 km/h 90% 0 mm 33.00 W/m2
07:49 7.7 °C 6.1 °C 1007.7 hPa NNW 24.1 km/h 33.8 km/h 90% 0 mm 28.00 W/m2
07:54 7.7 °C 6.1 °C 1008 hPa North 27.4 km/h 33.8 km/h 90% 0 mm 30.00 W/m2
07:59 7.7 °C 6.1 °C 1008 hPa North 22.5 km/h 33.8 km/h 90% 0 mm 35.00 W/m2
08:04 7.7 °C 6.1 °C 1008 hPa North 22.5 km/h 32.2 km/h 90% 0 mm 33.00 W/m2
08:09 7.7 °C 6.3 °C 1008 hPa North 29 km/h 33.8 km/h 91% 0 mm 35.00 W/m2
08:14 7.7 °C 6.1 °C 1008.4 hPa NNE 27.4 km/h 33.8 km/h 90% 0 mm 30.00 W/m2
08:19 7.7 °C 6.3 °C 1008.4 hPa NNE 14.5 km/h 35.4 km/h 91% 0 mm 28.00 W/m2
08:24 7.6 °C 6.2 °C 1008.4 hPa NNE 14.5 km/h 35.4 km/h 91% 0 mm 35.00 W/m2
08:29 7.4 °C 6.1 °C 1008.7 hPa NNE 17.7 km/h 35.4 km/h 91% 0 mm 40.00 W/m2
08:34 7.4 °C 6 °C 1009 hPa NNE 12.9 km/h 35.4 km/h 91% 0 mm 47.00 W/m2
08:39 7.3 °C 5.9 °C 1009 hPa NNE 19.3 km/h 29 km/h 91% 0 mm 67.00 W/m2
08:44 7.3 °C 5.9 °C 1008.7 hPa NNE 17.7 km/h 29 km/h 91% 0 mm 67.00 W/m2
08:49 7.2 °C 5.8 °C 1008.7 hPa NE 25.7 km/h 33.8 km/h 91% 0 mm 67.00 W/m2
08:54 7.2 °C 5.8 °C 1008.7 hPa NNE 24.1 km/h 33.8 km/h 91% 0 mm 84.00 W/m2
08:59 7.1 °C 5.6 °C 1008.7 hPa NNE 32.2 km/h 40.2 km/h 90% 0 mm 104.00 W/m2
09:04 7.1 °C 5.6 °C 1008.7 hPa NNE 27.4 km/h 40.2 km/h 90% 0 mm 135.00 W/m2
09:09 7.2 °C 5.6 °C 1008.7 hPa NNE 24.1 km/h 40.2 km/h 90% 0 mm 121.00 W/m2
09:14 7.2 °C 5.5 °C 1008.7 hPa NE 24.1 km/h 40.2 km/h 89% 0 mm 111.00 W/m2
09:19 7.1 °C 5.4 °C 1008.7 hPa NNE 17.7 km/h 37 km/h 89% 0 mm 123.00 W/m2
09:24 7.1 °C 5.2 °C 1008.7 hPa NE 25.7 km/h 40.2 km/h 88% 0 mm 125.00 W/m2
09:29 7.1 °C 5.3 °C 1009 hPa NNE 27.4 km/h 40.2 km/h 88% 0 mm 109.00 W/m2
09:34 7.2 °C 5.4 °C 1009 hPa NNE 35.4 km/h 37 km/h 88% 0 mm 104.00 W/m2
09:39 7.2 °C 5.3 °C 1009 hPa North 22.5 km/h 41.8 km/h 88% 0 mm 116.00 W/m2
09:44 7.3 °C 5.3 °C 1009.4 hPa NNE 30.6 km/h 45.1 km/h 87% 0 mm 299.00 W/m2
09:49 7.6 °C 5.4 °C 1009.4 hPa North 25.7 km/h 45.1 km/h 86% 0 mm 202.00 W/m2
09:54 7.8 °C 5.3 °C 1009.7 hPa NE 24.1 km/h 41.8 km/h 84% 0 mm 232.00 W/m2
09:59 8 °C 5.3 °C 1009.7 hPa NNE 19.3 km/h 41.8 km/h 83% 0 mm 206.00 W/m2
10:04 8.2 °C 5.4 °C 1009.7 hPa NNE 32.2 km/h 35.4 km/h 83% 0 mm 278.00 W/m2
10:09 8.3 °C 5.4 °C 1009.7 hPa North 20.9 km/h 37 km/h 82% 0 mm 322.00 W/m2
10:14 8.4 °C 5.3 °C 1009.7 hPa NNE 22.5 km/h 37 km/h 81% 0 mm 279.00 W/m2
10:19 8.5 °C 5.4 °C 1009.7 hPa NNE 25.7 km/h 32.2 km/h 81% 0 mm 345.00 W/m2
10:24 8.7 °C 5.6 °C 1009.7 hPa NNE 20.9 km/h 32.2 km/h 81% 0 mm 260.00 W/m2
10:29 8.7 °C 5.4 °C 1010 hPa NNE 16.1 km/h 32.2 km/h 80% 0 mm 144.00 W/m2
10:34 8.4 °C 5.2 °C 1010 hPa NE 25.7 km/h 32.2 km/h 80% 0 mm 181.00 W/m2
10:39 8.2 °C 5 °C 1010 hPa ENE 19.3 km/h 35.4 km/h 80% 0 mm 367.00 W/m2
10:44 8.2 °C 5 °C 1010 hPa NNE 24.1 km/h 35.4 km/h 80% 0 mm 295.00 W/m2
10:49 8.3 °C 5.1 °C 1010.4 hPa NE 27.4 km/h 32.2 km/h 80% 0 mm 186.00 W/m2
10:54 8.2 °C 4.9 °C 1010 hPa NE 30.6 km/h 33.8 km/h 80% 0 mm 246.00 W/m2
10:59 8.3 °C 4.8 °C 1010 hPa NE 29 km/h 33.8 km/h 79% 0 mm 346.00 W/m2
11:04 8.6 °C 5.1 °C 1010 hPa NNE 27.4 km/h 35.4 km/h 79% 0 mm 318.00 W/m2
11:09 8.8 °C 5.2 °C 1010.4 hPa NNE 22.5 km/h 40.2 km/h 78% 0 mm 287.00 W/m2
11:14 8.8 °C 4.8 °C 1010.4 hPa NNE 19.3 km/h 40.2 km/h 76% 0 mm 209.00 W/m2
11:19 8.8 °C 5 °C 1010.4 hPa NE 17.7 km/h 40.2 km/h 77% 0 mm 267.00 W/m2
11:24 8.9 °C 5.1 °C 1010.4 hPa NNE 24.1 km/h 40.2 km/h 77% 0 mm 394.00 W/m2
11:29 9.2 °C 5.2 °C 1010.4 hPa NE 20.9 km/h 32.2 km/h 76% 0 mm 353.00 W/m2
11:34 9.2 °C 4.9 °C 1010.4 hPa ENE 20.9 km/h 30.6 km/h 75% 0 mm 320.00 W/m2
11:39 9.1 °C 4.7 °C 1010.4 hPa NE 11.3 km/h 29 km/h 74% 0 mm 294.00 W/m2
11:44 9.3 °C 4.9 °C 1010.7 hPa NE 20.9 km/h 29 km/h 74% 0 mm 517.00 W/m2
11:49 9.6 °C 5 °C 1010.7 hPa NE 25.7 km/h 32.2 km/h 73% 0 mm 485.00 W/m2
11:54 10.2 °C 5.9 °C 1010.4 hPa NNE 19.3 km/h 32.2 km/h 75% 0 mm 559.00 W/m2
11:59 10.7 °C 5.8 °C 1010.4 hPa NNE 33.8 km/h 33.8 km/h 72% 0 mm 605.00 W/m2
12:04 10.9 °C 5.7 °C 1010.4 hPa North 24.1 km/h 37 km/h 70% 0 mm 540.00 W/m2
12:09 11.2 °C 5.9 °C 1010.4 hPa North 16.1 km/h 37 km/h 70% 0 mm 830.00 W/m2
12:14 11.3 °C 5.8 °C 1010.4 hPa North 16.1 km/h 37 km/h 69% 0 mm 719.00 W/m2
12:19 11.6 °C 6.3 °C 1010.4 hPa NNE 27.4 km/h 37 km/h 70% 0 mm 522.00 W/m2
12:24 11.8 °C 6.6 °C 1010.4 hPa NNE 16.1 km/h 35.4 km/h 70% 0 mm 1023.00 W/m2
12:29 12.3 °C 6.8 °C 1010.4 hPa NNE 17.7 km/h 38.6 km/h 69% 0 mm 1194.00 W/m2
12:34 12.3 °C 5.9 °C 1010.4 hPa NNE 19.3 km/h 38.6 km/h 65% 0 mm 587.00 W/m2
12:39 12.1 °C 5 °C 1010.4 hPa NNE 20.9 km/h 38.6 km/h 62% 0 mm 471.00 W/m2
12:44 12 °C 5.6 °C 1010.4 hPa NE 19.3 km/h 38.6 km/h 65% 0 mm 533.00 W/m2
12:49 12.2 °C 5.1 °C 1010 hPa NE 22.5 km/h 35.4 km/h 62% 0 mm 496.00 W/m2
12:54 12.1 °C 4.8 °C 1010.4 hPa ENE 12.9 km/h 35.4 km/h 61% 0 mm 483.00 W/m2
12:59 12.2 °C 5.1 °C 1010.4 hPa ENE 29 km/h 35.4 km/h 62% 0 mm 501.00 W/m2
13:04 12.2 °C 5.2 °C 1010.4 hPa NE 16.1 km/h 35.4 km/h 62% 0 mm 499.00 W/m2
13:09 12.5 °C 5.2 °C 1010.4 hPa NE 17.7 km/h 30.6 km/h 61% 0 mm 496.00 W/m2
13:14 12.6 °C 4.6 °C 1010 hPa ENE 9.7 km/h 33.8 km/h 58% 0 mm 496.00 W/m2
13:19 12.9 °C 5.3 °C 1010 hPa NNE 14.5 km/h 33.8 km/h 60% 0 mm 468.00 W/m2
13:24 13.2 °C 5.6 °C 1010 hPa NNE 17.7 km/h 29 km/h 60% 0 mm 457.00 W/m2
13:29 13.3 °C 5 °C 1010 hPa NE 20.9 km/h 32.2 km/h 57% 0 mm 492.00 W/m2
13:34 13.5 °C 4.6 °C 1010 hPa NNE 17.7 km/h 32.2 km/h 55% 0 mm 515.00 W/m2
13:39 13.6 °C 4.4 °C 1010 hPa NE 14.5 km/h 32.2 km/h 54% 0 mm 552.00 W/m2
13:44 13.8 °C 4.9 °C 1010.4 hPa NNE 17.7 km/h 32.2 km/h 55% 0 mm 557.00 W/m2
13:49 13.7 °C 4 °C 1010.4 hPa ENE 22.5 km/h 32.2 km/h 52% 0 mm 506.00 W/m2
13:54 13.7 °C 4.5 °C 1010.4 hPa NE 17.7 km/h 29 km/h 54% 0 mm 536.00 W/m2
13:59 13.6 °C 4.2 °C 1010.4 hPa NE 19.3 km/h 29 km/h 53% 0 mm 571.00 W/m2
14:04 14.1 °C 4.9 °C 1010.4 hPa NE 19.3 km/h 30.6 km/h 54% 0 mm 534.00 W/m2
14:09 14 °C 4.3 °C 1010.4 hPa NNE 24.1 km/h 32.2 km/h 52% 0 mm 578.00 W/m2
14:14 14.2 °C 4.2 °C 1010.4 hPa NE 17.7 km/h 32.2 km/h 51% 0 mm 638.00 W/m2
14:19 14.5 °C 5 °C 1010.4 hPa ENE 24.1 km/h 32.2 km/h 53% 0 mm 1078.00 W/m2
14:24 14.7 °C 4.1 °C 1010.4 hPa NE 16.1 km/h 32.2 km/h 49% 0 mm 997.00 W/m2
14:29 14.9 °C 4.3 °C 1010.4 hPa NE 20.9 km/h 30.6 km/h 49% 0 mm 969.00 W/m2
14:34 15.2 °C 5.7 °C 1010.4 hPa ENE 19.3 km/h 30.6 km/h 53% 0 mm 940.00 W/m2
14:39 15.3 °C 4.9 °C 1010 hPa NE 16.1 km/h 30.6 km/h 50% 0 mm 749.00 W/m2
14:44 15.4 °C 5.1 °C 1010.4 hPa NE 14.5 km/h 30.6 km/h 50% 0 mm 664.00 W/m2
14:49 15.3 °C 3.4 °C 1010 hPa ENE 6.4 km/h 30.6 km/h 45% 0 mm 861.00 W/m2
14:54 15.3 °C 3.7 °C 1010 hPa ENE 17.7 km/h 27.4 km/h 46% 0 mm 824.00 W/m2
14:59 15.4 °C 5.1 °C 1010 hPa ENE 14.5 km/h 27.4 km/h 50% 0 mm 847.00 W/m2
15:04 15.4 °C 4.1 °C 1010 hPa NE 22.5 km/h 27.4 km/h 47% 0 mm 742.00 W/m2
15:09 15.3 °C 4.4 °C 1010 hPa North 19.3 km/h 27.4 km/h 48% 0 mm 754.00 W/m2
15:14 15.6 °C 5.2 °C 1010 hPa NNE 11.3 km/h 27.4 km/h 50% 0 mm 733.00 W/m2
15:19 15.8 °C 4.2 °C 1010 hPa ENE 20.9 km/h 27.4 km/h 46% 0 mm 838.00 W/m2
15:24 15.2 °C 2.7 °C 1010 hPa ENE 12.9 km/h 27.4 km/h 43% 0 mm 752.00 W/m2
15:29 15 °C 3.8 °C 1010 hPa NE 9.7 km/h 25.7 km/h 47% 0 mm 735.00 W/m2
15:34 15.1 °C 2.9 °C 1010 hPa NE 8 km/h 25.7 km/h 44% 0 mm 622.00 W/m2
15:39 15.1 °C 2.9 °C 1010 hPa NE 8 km/h 25.7 km/h 44% 0 mm 661.00 W/m2
15:44 15.3 °C 4 °C 1010 hPa East 12.9 km/h 24.1 km/h 47% 0 mm 578.00 W/m2
15:49 15.6 °C 4.6 °C 1010 hPa NNE 9.7 km/h 24.1 km/h 48% 0 mm 598.00 W/m2
15:54 15.8 °C 4.2 °C 1010 hPa ENE 20.9 km/h 24.1 km/h 46% 0 mm 606.00 W/m2
15:59 15.9 °C 3.9 °C 1009.7 hPa ENE 25.7 km/h 32.2 km/h 45% 0 mm 584.00 W/m2
16:04 15.6 °C 3.3 °C 1009.7 hPa NE 24.1 km/h 33.8 km/h 44% 0 mm 564.00 W/m2
16:09 15.5 °C 3.6 °C 1009.7 hPa NNE 22.5 km/h 33.8 km/h 45% 0 mm 587.00 W/m2
16:14 15.4 °C 2.6 °C 1009.7 hPa NE 20.9 km/h 33.8 km/h 42% 0 mm 675.00 W/m2
16:19 15.3 °C 3.1 °C 1009.7 hPa NNE 17.7 km/h 33.8 km/h 44% 0 mm 631.00 W/m2
16:24 15.4 °C 2.9 °C 1009.7 hPa ENE 14.5 km/h 30.6 km/h 43% 0 mm 520.00 W/m2
16:29 15.5 °C 3.9 °C 1009.7 hPa North 24.1 km/h 30.6 km/h 46% 0 mm 613.00 W/m2
16:34 15.8 °C 3.2 °C 1009.7 hPa NNE 17.7 km/h 29 km/h 43% 0 mm 580.00 W/m2
16:39 15.9 °C 3.7 °C 1009.4 hPa NE 12.9 km/h 29 km/h 44% 0 mm 601.00 W/m2
16:44 15.9 °C 2.7 °C 1009.4 hPa NE 22.5 km/h 32.2 km/h 41% 0 mm 422.00 W/m2
16:49 15.8 °C 2.9 °C 1009.4 hPa NNE 19.3 km/h 32.2 km/h 42% 0 mm 675.00 W/m2
16:54 16.1 °C 2.8 °C 1009.4 hPa NE 14.5 km/h 32.2 km/h 41% 0 mm 608.00 W/m2
16:59 15.9 °C 1.9 °C 1009.4 hPa ENE 22.5 km/h 32.2 km/h 39% 0 mm 557.00 W/m2
17:04 15.7 °C 2.2 °C 1009.4 hPa NE 20.9 km/h 30.6 km/h 40% 0 mm 566.00 W/m2
17:09 15.8 °C 1.8 °C 1009.4 hPa ENE 20.9 km/h 30.6 km/h 39% 0 mm 315.00 W/m2
17:14 15.6 °C 1.7 °C 1009.4 hPa NE 20.9 km/h 30.6 km/h 39% 0 mm 425.00 W/m2
17:19 15.6 °C 1.7 °C 1009.4 hPa NE 14.5 km/h 30.6 km/h 39% 0 mm 452.00 W/m2
17:24 15.6 °C 1.3 °C 1009.4 hPa NE 19.3 km/h 30.6 km/h 38% 0 mm 441.00 W/m2
17:29 15.6 °C 1.7 °C 1009.4 hPa ENE 17.7 km/h 33.8 km/h 39% 0 mm 448.00 W/m2
17:34 15.4 °C 0.8 °C 1009.4 hPa East 20.9 km/h 33.8 km/h 37% 0 mm 478.00 W/m2
17:39 15.5 °C 0.8 °C 1009.4 hPa ENE 16.1 km/h 32.2 km/h 37% 0 mm 480.00 W/m2
17:44 15.7 °C 1 °C 1009.4 hPa ENE 25.7 km/h 32.2 km/h 37% 0 mm 462.00 W/m2
17:49 15.6 °C 0.9 °C 1009.4 hPa NE 19.3 km/h 30.6 km/h 37% 0 mm 489.00 W/m2
17:54 15.7 °C 0.6 °C 1009.4 hPa East 17.7 km/h 30.6 km/h 36% 0 mm 550.00 W/m2
17:59 15.6 °C 0.2 °C 1009.4 hPa East 24.1 km/h 30.6 km/h 35% 0 mm 598.00 W/m2
18:04 15.7 °C 0.7 °C 1009.4 hPa ENE 17.7 km/h 30.6 km/h 36% 0 mm 554.00 W/m2
18:09 15.7 °C 1.4 °C 1009.4 hPa ENE 9.7 km/h 27.4 km/h 38% 0 mm 246.00 W/m2
18:14 15.3 °C -1.3 °C 1009.4 hPa ENE 16.1 km/h 29 km/h 32% 0 mm 213.00 W/m2
18:19 15.1 °C 0.1 °C 1009.4 hPa ENE 16.1 km/h 29 km/h 36% 0 mm 489.00 W/m2
18:24 15.3 °C 0.7 °C 1009.4 hPa ENE 16.1 km/h 29 km/h 37% 0 mm 438.00 W/m2
18:29 15.3 °C 0.7 °C 1009.7 hPa NE 22.5 km/h 30.6 km/h 37% 0 mm 281.00 W/m2
18:34 15.3 °C 0.7 °C 1009.4 hPa ENE 14.5 km/h 30.6 km/h 37% 0 mm 364.00 W/m2
18:39 15.3 °C 0.3 °C 1009.4 hPa NE 22.5 km/h 30.6 km/h 36% 0 mm 461.00 W/m2
18:44 15.6 °C 0.9 °C 1009.4 hPa ENE 16.1 km/h 30.6 km/h 37% 0 mm 388.00 W/m2
18:49 15.6 °C 0.9 °C 1009.4 hPa East 12.9 km/h 30.6 km/h 37% 0 mm 388.00 W/m2
18:54 15.8 °C 0.7 °C 1009.4 hPa ENE 8 km/h 29 km/h 36% 0 mm 267.00 W/m2
18:59 15.7 °C 0.6 °C 1009.4 hPa NE 19.3 km/h 32.2 km/h 36% 0 mm 390.00 W/m2
19:04 15.4 °C 0.4 °C 1009.4 hPa NE 14.5 km/h 33.8 km/h 36% 0 mm 327.00 W/m2
19:09 15.4 °C 0 °C 1009.4 hPa ENE 14.5 km/h 33.8 km/h 35% 0 mm 213.00 W/m2
19:14 15.2 °C 0.6 °C 1009.4 hPa ENE 9.7 km/h 33.8 km/h 37% 0 mm 199.00 W/m2
19:19 15.1 °C 0.4 °C 1009.4 hPa NE 25.7 km/h 33.8 km/h 37% 0 mm 237.00 W/m2
19:24 14.9 °C 0.3 °C 1009.4 hPa NE 25.7 km/h 32.2 km/h 37% 0 mm 239.00 W/m2
19:29 14.8 °C -0.1 °C 1009.4 hPa ENE 22.5 km/h 30.6 km/h 36% 0 mm 199.00 W/m2
19:34 14.7 °C -0.3 °C 1009.4 hPa East 11.3 km/h 30.6 km/h 36% 0 mm 118.00 W/m2
19:39 14.5 °C -0.4 °C 1009.4 hPa NE 14.5 km/h 30.6 km/h 36% 0 mm 176.00 W/m2
19:44 14.4 °C -0.9 °C 1009.4 hPa ENE 17.7 km/h 30.6 km/h 35% 0 mm 74.00 W/m2
19:49 14.2 °C -0.7 °C 1009.4 hPa ENE 14.5 km/h 27.4 km/h 36% 0 mm 62.00 W/m2
19:54 13.9 °C -0.6 °C 1009.7 hPa NNE 12.9 km/h 25.7 km/h 37% 0 mm 62.00 W/m2
19:59 13.7 °C -0.3 °C 1009.7 hPa ENE 12.9 km/h 25.7 km/h 38% 0 mm 72.00 W/m2
20:04 13.7 °C -0.1 °C 1009.7 hPa ENE 14.5 km/h 25.7 km/h 39% 0 mm 81.00 W/m2
20:09 13.7 °C -0.1 °C 1009.7 hPa East 14.5 km/h 25.7 km/h 39% 0 mm 120.00 W/m2
20:14 13.7 °C 0.3 °C 1009.4 hPa East 20.9 km/h 22.5 km/h 40% 0 mm 100.00 W/m2
20:19 13.7 °C 1 °C 1009.7 hPa East 6.4 km/h 22.5 km/h 42% 0 mm 81.00 W/m2
20:24 13.4 °C 1.1 °C 1009.7 hPa ESE 12.9 km/h 22.5 km/h 43% 0 mm 30.00 W/m2
20:29 13.1 °C 0.8 °C 1009.7 hPa East 14.5 km/h 20.9 km/h 43% 0 mm 26.00 W/m2
20:34 12.8 °C 0.6 °C 1009.7 hPa East 12.9 km/h 20.9 km/h 43% 0 mm 26.00 W/m2
20:39 12.6 °C 0.3 °C 1009.7 hPa East 6.4 km/h 20.9 km/h 43% 0 mm 21.00 W/m2
20:44 12.4 °C 0.5 °C 1009.7 hPa East 11.3 km/h 20.9 km/h 44% 0 mm 16.00 W/m2
20:49 12.3 °C 0.7 °C 1010 hPa East 11.3 km/h 20.9 km/h 45% 0 mm 16.00 W/m2
20:54 12.1 °C 0.4 °C 1010 hPa ESE 12.9 km/h 20.9 km/h 45% 0 mm 11.00 W/m2
20:59 11.8 °C 0.6 °C 1010 hPa East 8 km/h 20.9 km/h 46% 0 mm 9.00 W/m2
21:04 11.7 °C 0.4 °C 1010.4 hPa East 11.3 km/h 20.9 km/h 46% 0 mm 7.00 W/m2
21:09 11.5 °C 0.3 °C 1010.4 hPa ENE 6.4 km/h 20.9 km/h 46% 0 mm 5.00 W/m2
21:14 11.4 °C 0.2 °C 1010.4 hPa ENE 6.4 km/h 16.1 km/h 46% 0 mm 0.00 W/m2
21:19 11.3 °C 0.1 °C 1010 hPa ENE 11.3 km/h 17.7 km/h 46% 0 mm 0.00 W/m2
21:24 11.2 °C -0.3 °C 1010 hPa NE 14.5 km/h 22.5 km/h 45% 0 mm 0.00 W/m2
21:29 11.2 °C -0.6 °C 1010.4 hPa ENE 14.5 km/h 24.1 km/h 44% 0 mm 0.00 W/m2
21:34 11.2 °C -0.7 °C 1010.4 hPa ENE 17.7 km/h 24.1 km/h 44% 0 mm 0.00 W/m2
21:39 11.2 °C -0.9 °C 1010.4 hPa East 8 km/h 22.5 km/h 43% 0 mm 0.00 W/m2
21:44 11.1 °C -1.1 °C 1010.4 hPa East 14.5 km/h 22.5 km/h 43% 0 mm 0.00 W/m2
21:49 10.9 °C -0.8 °C 1010.7 hPa East 14.5 km/h 22.5 km/h 44% 0 mm 0.00 W/m2
21:54 10.9 °C -0.9 °C 1010.7 hPa ENE 11.3 km/h 22.5 km/h 44% 0 mm 0.00 W/m2
21:59 10.8 °C -0.9 °C 1010.7 hPa NE 9.7 km/h 22.5 km/h 44% 0 mm 0.00 W/m2
22:04 10.8 °C -0.7 °C 1010.7 hPa East 14.5 km/h 24.1 km/h 45% 0 mm 0.00 W/m2
22:09 10.8 °C -0.7 °C 1010.7 hPa NE 11.3 km/h 24.1 km/h 45% 0 mm 0.00 W/m2
22:14 10.7 °C -0.7 °C 1011.1 hPa ENE 12.9 km/h 25.7 km/h 45% 0 mm 0.00 W/m2
22:19 10.7 °C -0.8 °C 1011.1 hPa East 9.7 km/h 25.7 km/h 45% 0 mm 0.00 W/m2
22:24 10.7 °C -0.8 °C 1011.1 hPa East 16.1 km/h 25.7 km/h 45% 0 mm 0.00 W/m2
22:29 10.6 °C -0.8 °C 1011.1 hPa ENE 19.3 km/h 25.7 km/h 45% 0 mm 0.00 W/m2
22:34 10.6 °C -0.8 °C 1011.1 hPa East 20.9 km/h 27.4 km/h 45% 0 mm 0.00 W/m2
22:39 10.6 °C -0.8 °C 1011.1 hPa ENE 20.9 km/h 27.4 km/h 45% 0 mm 0.00 W/m2
22:44 10.6 °C -0.8 °C 1011.1 hPa East 20.9 km/h 25.7 km/h 45% 0 mm 0.00 W/m2
22:49 10.6 °C -0.6 °C 1010.7 hPa East 20.9 km/h 25.7 km/h 46% 0 mm 0.00 W/m2
22:54 10.5 °C -0.3 °C 1010.7 hPa ENE 9.7 km/h 29 km/h 47% 0 mm 0.00 W/m2
22:59 10.4 °C 0.2 °C 1010.7 hPa ENE 14.5 km/h 29 km/h 49% 0 mm 0.00 W/m2
23:04 10.4 °C 0.1 °C 1011.1 hPa ENE 14.5 km/h 29 km/h 49% 0 mm 0.00 W/m2
23:09 10.4 °C 0.4 °C 1010.7 hPa ENE 22.5 km/h 29 km/h 50% 0 mm 0.00 W/m2
23:14 10.4 °C 0.4 °C 1010.7 hPa ENE 9.7 km/h 25.7 km/h 50% 0 mm 0.00 W/m2
23:19 10.3 °C 0.3 °C 1010.4 hPa NE 20.9 km/h 25.7 km/h 50% 0 mm 0.00 W/m2
23:24 10.3 °C 0.3 °C 1010.4 hPa ENE 19.3 km/h 27.4 km/h 50% 0 mm 0.00 W/m2
23:29 10.3 °C 0.1 °C 1010.4 hPa ENE 16.1 km/h 27.4 km/h 49% 0 mm 0.00 W/m2
23:34 10.3 °C 0 °C 1010.4 hPa ENE 11.3 km/h 27.4 km/h 49% 0 mm 0.00 W/m2
23:39 10.3 °C 0 °C 1010.4 hPa East 16.1 km/h 25.7 km/h 49% 0 mm 0.00 W/m2
23:44 10.3 °C 0 °C 1010.4 hPa East 22.5 km/h 25.7 km/h 49% 0 mm 0.00 W/m2
23:49 10.2 °C 0.2 °C 1010 hPa East 12.9 km/h 25.7 km/h 50% 0 mm 0.00 W/m2
23:54 10.2 °C 0.2 °C 1010 hPa ENE 12.9 km/h 25.7 km/h 50% 0 mm 0.00 W/m2
23:59 10.1 °C 0.2 °C 1009.7 hPa East 12.9 km/h 25.7 km/h 50% 0 mm 0.00 W/m2
Bismarck, North Dakota, USA
Compliments of Weather Underground - 4 mb